Lackey, Virginia
Current Conditions -  °F | °C
As of 4:03 PM on Monday 22 Dec 2014 (Local Time) from KPHF Reporting Station
Haze Haze  
Wind Chill: 41°   Ceiling: 400
Heat Index: 46°   Visibility: 2.5mi
Dew Point: 43°   Wind: 12mph
Humidity: 89%   Direction: 40°NE
Pressure: 30.03"   Gusts: 20mph
Location:  37.23°N, 76.55°W
Report Text: KPHF 222103Z 04010G17KT 2 1/2SM BR OVC004 08/06 A3003 RMK AO2 RAE2055 P0000 T00780061
Loading
Personal Weather Stations






























Interactive Weather Map New forecast layout! Learn more

10-Day Weather Forecast

Advertisements
Track Severe Weather on mobile